createdAt,value
2022-11-16T00:01:17.423Z,75.53
2022-11-16T00:03:45.731Z,75.54
2022-11-16T00:06:15.730Z,75.60
2022-11-16T00:08:45.524Z,75.61
2022-11-16T00:11:16.051Z,75.76
2022-11-16T00:13:46.165Z,75.78
2022-11-16T00:16:16.946Z,75.60
2022-11-16T00:18:45.402Z,75.93
2022-11-16T00:21:13.141Z,75.99
2022-11-16T00:23:41.026Z,75.85
2022-11-16T00:26:11.205Z,75.78
2022-11-16T00:28:39.021Z,76.47
2022-11-16T00:31:08.937Z,76.38
2022-11-16T00:33:37.159Z,76.16
2022-11-16T00:36:06.477Z,76.36
2022-11-16T00:38:34.910Z,76.43
2022-11-16T00:41:03.060Z,76.30
2022-11-16T00:43:30.901Z,76.20
2022-11-16T00:45:58.659Z,76.52
2022-11-16T00:48:27.810Z,76.25
2022-11-16T00:50:55.787Z,76.25
2022-11-16T00:53:24.052Z,76.84
2022-11-16T00:55:51.942Z,76.59
2022-11-16T00:58:21.265Z,76.30
2022-11-16T01:00:55.427Z,76.28
2022-11-16T01:03:25.200Z,76.36
2022-11-16T01:05:54.363Z,76.50
2022-11-16T01:08:22.141Z,76.36
2022-11-16T01:10:50.043Z,76.40
2022-11-16T01:13:16.886Z,76.51
2022-11-16T01:15:48.547Z,76.06
2022-11-16T01:18:16.379Z,76.30
2022-11-16T01:20:44.156Z,76.67
2022-11-16T01:23:13.283Z,76.47
2022-11-16T01:25:41.058Z,76.27
2022-11-16T01:28:09.221Z,76.03
2022-11-16T01:30:49.368Z,75.94
2022-11-16T01:33:17.506Z,76.39
2022-11-16T01:35:45.423Z,76.24
2022-11-16T01:38:17.414Z,76.28
2022-11-16T01:40:45.945Z,76.32
2022-11-16T01:43:17.622Z,76.54
2022-11-16T01:45:47.046Z,76.88
2022-11-16T01:48:21.323Z,76.85
2022-11-16T01:50:50.862Z,76.85
2022-11-16T01:53:20.855Z,76.88
2022-11-16T01:55:53.393Z,77.04
2022-11-16T01:58:33.852Z,77.14
2022-11-16T02:01:19.134Z,77.16
2022-11-16T02:03:54.061Z,77.03
2022-11-16T02:06:47.412Z,77.13
2022-11-16T02:09:54.901Z,77.11
2022-11-16T02:13:01.292Z,76.86
2022-11-16T02:15:47.260Z,77.04
2022-11-16T02:18:31.526Z,77.24
2022-11-16T02:21:09.156Z,77.42
2022-11-16T02:24:07.437Z,77.08
2022-11-16T02:27:03.515Z,77.27
2022-11-16T02:29:36.855Z,77.36
2022-11-16T02:32:11.908Z,77.36
2022-11-16T02:34:43.764Z,77.55
2022-11-16T02:37:15.761Z,77.57
2022-11-16T02:39:47.312Z,77.41
2022-11-16T02:42:20.213Z,77.54
2022-11-16T02:44:52.561Z,77.54
2022-11-16T02:47:24.106Z,77.46
2022-11-16T02:49:57.210Z,77.39
2022-11-16T02:52:28.266Z,77.68
2022-11-16T02:54:56.589Z,77.69
2022-11-16T02:57:41.274Z,77.51
2022-11-16T03:00:21.098Z,77.23
2022-11-16T03:03:04.047Z,77.24
2022-11-16T03:05:36.442Z,77.40
2022-11-16T03:08:27.459Z,77.04
2022-11-16T03:11:17.554Z,76.99
2022-11-16T03:13:46.150Z,77.28
2022-11-16T03:16:19.930Z,77.44
2022-11-16T03:18:48.649Z,77.54
2022-11-16T03:21:26.320Z,77.23
2022-11-16T03:23:54.567Z,77.33
2022-11-16T03:26:27.693Z,77.19
2022-11-16T03:29:00.541Z,77.25
2022-11-16T03:31:38.965Z,77.34
2022-11-16T03:34:13.268Z,77.33
2022-11-16T03:36:44.503Z,77.58
2022-11-16T03:39:17.654Z,77.47
2022-11-16T03:41:49.216Z,77.58
2022-11-16T03:44:20.175Z,77.77
2022-11-16T03:46:49.467Z,77.77
2022-11-16T03:49:22.021Z,77.81
2022-11-16T03:51:50.682Z,77.40
2022-11-16T03:54:18.829Z,77.47
2022-11-16T03:56:46.783Z,77.55
2022-11-16T03:59:14.593Z,77.89
2022-11-16T04:01:44.911Z,77.78
2022-11-16T04:04:29.504Z,77.94
2022-11-16T04:07:15.674Z,77.88
2022-11-16T04:10:00.930Z,77.77
2022-11-16T04:12:46.261Z,78.02
2022-11-16T04:15:31.570Z,77.87
2022-11-16T04:18:17.523Z,77.78
2022-11-16T04:21:04.141Z,77.93
2022-11-16T04:23:50.242Z,77.87
2022-11-16T04:26:18.922Z,77.97
2022-11-16T04:28:46.813Z,77.80
2022-11-16T04:31:33.055Z,77.82
2022-11-16T04:34:37.323Z,78.06
2022-11-16T04:37:24.381Z,77.95
2022-11-16T04:39:52.157Z,77.66
2022-11-16T04:42:22.278Z,77.97
2022-11-16T04:45:10.101Z,77.93
2022-11-16T04:47:46.545Z,77.54
2022-11-16T04:50:14.938Z,77.77
2022-11-16T04:52:44.985Z,78.00
2022-11-16T04:55:14.837Z,77.86
2022-11-16T04:57:44.824Z,77.97
2022-11-16T05:00:14.774Z,78.19
2022-11-16T05:02:42.671Z,78.20
2022-11-16T05:05:11.279Z,77.70
2022-11-16T05:07:42.255Z,77.62
2022-11-16T05:10:21.225Z,77.82
2022-11-16T05:12:50.511Z,77.94
2022-11-16T05:15:19.724Z,77.90
2022-11-16T05:17:48.507Z,77.43
2022-11-16T05:20:37.963Z,77.42
2022-11-16T05:23:26.452Z,77.67
2022-11-16T05:25:55.348Z,77.45
2022-11-16T05:28:23.738Z,77.72
2022-11-16T05:30:52.450Z,77.53
2022-11-16T05:33:23.751Z,77.40
2022-11-16T05:35:52.861Z,77.45
2022-11-16T05:38:22.061Z,77.64
2022-11-16T05:40:53.908Z,77.26
2022-11-16T05:43:23.328Z,77.40
2022-11-16T05:45:59.934Z,77.52
2022-11-16T05:48:27.826Z,77.22
2022-11-16T05:50:59.475Z,77.30
2022-11-16T05:53:29.355Z,77.62
2022-11-16T05:55:58.859Z,77.56
2022-11-16T05:58:28.705Z,77.52
2022-11-16T06:00:58.807Z,77.65
2022-11-16T06:03:29.263Z,77.46
2022-11-16T06:05:58.013Z,77.18
2022-11-16T06:08:28.194Z,77.52
2022-11-16T06:11:02.986Z,77.37
2022-11-16T06:13:33.044Z,76.97
2022-11-16T06:16:03.072Z,76.99
2022-11-16T06:18:33.154Z,76.71
2022-11-16T06:21:02.375Z,76.74
2022-11-16T06:23:30.353Z,76.92
2022-11-16T06:25:59.020Z,76.58
2022-11-16T06:28:29.554Z,76.75
2022-11-16T06:30:59.362Z,76.59
2022-11-16T06:33:33.352Z,76.69
2022-11-16T06:36:04.591Z,76.82
2022-11-16T06:38:33.540Z,76.88
2022-11-16T06:41:02.228Z,77.06
2022-11-16T06:43:33.142Z,76.91
2022-11-16T06:46:03.479Z,76.89
2022-11-16T06:51:42.747Z,76.56
2022-11-16T06:54:10.773Z,76.97
2022-11-16T06:56:38.644Z,76.99
2022-11-16T06:59:07.858Z,77.18
2022-11-16T07:01:37.598Z,77.28
2022-11-16T07:04:12.047Z,77.44
2022-11-16T07:06:44.363Z,77.56
2022-11-16T07:09:16.179Z,77.23
2022-11-16T07:11:45.002Z,77.15
2022-11-16T07:14:14.784Z,77.04
2022-11-16T07:16:45.732Z,76.65
2022-11-16T07:19:14.191Z,75.92
2022-11-16T07:21:43.595Z,75.64
2022-11-16T07:24:16.240Z,75.18
2022-11-16T07:26:44.154Z,74.14
2022-11-16T07:29:17.690Z,73.33
2022-11-16T07:32:06.327Z,73.34
2022-11-16T07:34:59.227Z,73.42
2022-11-16T07:37:27.915Z,73.35
2022-11-16T07:39:56.405Z,72.85
2022-11-16T07:42:26.096Z,72.96
2022-11-16T07:45:23.473Z,73.10
2022-11-16T07:47:59.083Z,73.25
2022-11-16T07:50:45.883Z,72.93
2022-11-16T07:53:13.903Z,72.82
2022-11-16T07:55:42.052Z,72.61
2022-11-16T07:58:10.948Z,72.38
2022-11-16T08:00:39.573Z,73.01
2022-11-16T08:03:21.807Z,72.77
2022-11-16T08:05:59.666Z,72.29
2022-11-16T08:08:27.689Z,71.34
2022-11-16T08:11:00.861Z,70.69
2022-11-16T08:13:31.839Z,69.84
2022-11-16T08:16:01.950Z,68.60
2022-11-16T08:18:31.615Z,66.30
2022-11-16T08:21:00.500Z,63.46
2022-11-16T08:23:30.458Z,60.80
2022-11-16T08:25:59.945Z,55.22
2022-11-16T08:28:29.296Z,50.02
2022-11-16T08:30:58.273Z,45.46
2022-11-16T08:33:26.859Z,42.75
2022-11-16T08:35:58.725Z,41.66
2022-11-16T08:38:26.780Z,41.53
2022-11-16T08:40:56.518Z,41.57
2022-11-16T08:43:26.535Z,42.17
2022-11-16T08:45:54.675Z,42.33
2022-11-16T08:48:23.266Z,41.89
2022-11-16T08:51:16.034Z,42.96
2022-11-16T08:53:43.913Z,43.29
2022-11-16T08:56:13.665Z,43.97
2022-11-16T08:58:44.376Z,43.96
2022-11-16T09:01:16.356Z,42.88
2022-11-16T09:03:45.194Z,39.39
2022-11-16T09:06:14.224Z,39.24
2022-11-16T09:08:45.080Z,38.14
2022-11-16T09:11:16.768Z,37.90
2022-11-16T09:13:44.767Z,36.82
2022-11-16T09:16:15.806Z,36.21
2022-11-16T09:18:44.223Z,37.06
2022-11-16T09:21:11.995Z,35.47
2022-11-16T09:23:39.761Z,36.17
2022-11-16T09:26:09.046Z,37.14
2022-11-16T09:28:37.153Z,37.85
2022-11-16T09:31:06.068Z,37.64
2022-11-16T09:33:35.185Z,37.56
2022-11-16T09:36:06.826Z,37.15
2022-11-16T09:38:55.739Z,37.05
2022-11-16T09:41:41.632Z,37.89
2022-11-16T09:44:18.595Z,37.12
2022-11-16T09:46:48.932Z,37.12
2022-11-16T09:49:21.607Z,38.69
2022-11-16T09:51:54.220Z,41.28
2022-11-16T09:54:25.451Z,40.90
2022-11-16T09:56:58.119Z,37.20
2022-11-16T09:59:29.852Z,36.95
2022-11-16T10:02:02.262Z,36.48
2022-11-16T10:04:39.395Z,38.39
2022-11-16T10:07:14.040Z,39.28
2022-11-16T10:09:42.485Z,40.10
2022-11-16T10:12:18.087Z,38.13
2022-11-16T10:15:31.891Z,38.30
2022-11-16T10:18:12.288Z,38.14
2022-11-16T10:21:04.352Z,38.22
2022-11-16T10:23:50.101Z,36.73
2022-11-16T10:26:28.482Z,33.51
2022-11-16T10:29:19.715Z,33.54
2022-11-16T10:32:02.349Z,34.19
2022-11-16T10:34:38.708Z,33.15
2022-11-16T10:37:08.499Z,32.36
2022-11-16T10:39:40.842Z,33.07
2022-11-16T10:42:12.817Z,31.36
2022-11-16T10:44:45.283Z,33.94
2022-11-16T10:47:21.835Z,31.57
2022-11-16T10:49:57.068Z,31.47
2022-11-16T10:52:25.098Z,30.36
2022-11-16T10:54:53.637Z,29.60
2022-11-16T10:57:23.727Z,30.74
2022-11-16T10:59:55.739Z,33.07
2022-11-16T11:02:35.896Z,34.22
2022-11-16T11:05:15.504Z,34.27
2022-11-16T11:07:46.751Z,34.51
2022-11-16T11:10:29.592Z,35.22
2022-11-16T11:13:22.043Z,36.71
2022-11-16T11:15:51.409Z,35.24
2022-11-16T11:18:26.840Z,32.96
2022-11-16T11:21:07.861Z,34.37
2022-11-16T11:23:43.438Z,35.10
2022-11-16T11:26:36.168Z,35.02
2022-11-16T11:29:16.740Z,34.25
2022-11-16T11:31:48.449Z,34.03
2022-11-16T11:34:21.429Z,34.00
2022-11-16T11:36:53.743Z,30.89
2022-11-16T11:39:33.863Z,30.77
2022-11-16T11:42:05.319Z,30.55
2022-11-16T11:44:39.574Z,31.93
2022-11-16T11:50:17.645Z,33.82
2022-11-16T11:52:58.514Z,32.13
2022-11-16T11:55:26.960Z,33.08
2022-11-16T11:57:57.322Z,34.50
2022-11-16T12:00:26.047Z,36.73
2022-11-16T12:03:22.042Z,37.47
2022-11-16T12:06:11.467Z,39.63
2022-11-16T12:08:51.601Z,41.43
2022-11-16T12:11:27.364Z,42.65
2022-11-16T12:14:14.402Z,43.18
2022-11-16T12:16:50.785Z,44.42
2022-11-16T12:19:44.459Z,45.71
2022-11-16T12:22:30.154Z,45.62
2022-11-16T12:25:16.443Z,44.75
2022-11-16T12:27:51.429Z,41.44
2022-11-16T12:30:21.856Z,40.88
2022-11-16T12:33:11.546Z,43.01
2022-11-16T12:35:51.763Z,44.70
2022-11-16T12:38:30.130Z,46.12
2022-11-16T12:41:11.858Z,45.81
2022-11-16T12:43:50.079Z,46.25
2022-11-16T12:46:28.295Z,47.83
2022-11-16T12:49:26.400Z,47.95
2022-11-16T12:52:09.936Z,49.02
2022-11-16T12:55:24.749Z,48.23
2022-11-16T12:57:58.198Z,50.68
2022-11-16T13:00:27.982Z,51.16
2022-11-16T13:03:12.653Z,50.98
2022-11-16T13:05:57.035Z,51.53
2022-11-16T13:08:37.003Z,51.51
2022-11-16T13:11:12.488Z,51.63
2022-11-16T13:13:42.039Z,50.77
2022-11-16T13:16:11.504Z,50.92
2022-11-16T13:18:42.506Z,50.90
2022-11-16T13:21:21.060Z,51.42
2022-11-16T13:24:01.959Z,50.88
2022-11-16T13:26:36.491Z,51.39
2022-11-16T13:29:15.685Z,52.26
2022-11-16T13:31:50.237Z,52.31
2022-11-16T13:34:24.426Z,50.55
2022-11-16T13:36:52.186Z,52.39
2022-11-16T13:39:42.080Z,52.27
2022-11-16T13:42:14.271Z,51.62
2022-11-16T13:44:44.255Z,53.09
2022-11-16T13:47:22.986Z,53.58
2022-11-16T13:49:53.330Z,54.55
2022-11-16T13:52:24.991Z,54.96
2022-11-16T13:55:16.029Z,55.05
2022-11-16T13:57:51.977Z,55.22
2022-11-16T14:00:24.288Z,56.10
2022-11-16T14:03:26.799Z,55.50
2022-11-16T14:05:54.716Z,55.50
2022-11-16T14:08:48.469Z,55.38
2022-11-16T14:11:33.006Z,55.49
2022-11-16T14:14:05.506Z,55.82
2022-11-16T14:16:54.489Z,56.26
2022-11-16T14:19:52.858Z,57.07
2022-11-16T14:22:39.619Z,57.52
2022-11-16T14:25:18.579Z,57.95
2022-11-16T14:27:56.489Z,57.94
2022-11-16T14:30:28.529Z,57.92
2022-11-16T14:32:58.349Z,58.44
2022-11-16T14:35:33.755Z,58.42
2022-11-16T14:38:04.670Z,58.81
2022-11-16T14:40:35.470Z,59.23
2022-11-16T14:43:16.829Z,59.44
2022-11-16T14:45:49.119Z,58.64
2022-11-16T14:48:19.033Z,59.73
2022-11-16T14:50:58.389Z,59.48
2022-11-16T14:53:28.088Z,59.32
2022-11-16T14:56:07.429Z,58.92
2022-11-16T14:58:37.112Z,59.52
2022-11-16T15:01:08.336Z,59.59
2022-11-16T15:03:41.240Z,58.80
2022-11-16T15:06:09.525Z,59.32
2022-11-16T15:08:44.206Z,59.98
2022-11-16T15:11:23.463Z,60.23
2022-11-16T15:13:52.990Z,60.51
2022-11-16T15:16:21.569Z,60.86
2022-11-16T15:19:03.120Z,60.90
2022-11-16T15:21:30.958Z,61.43
2022-11-16T15:26:46.812Z,61.77
2022-11-16T15:29:18.936Z,62.30
2022-11-16T15:31:47.783Z,62.44
2022-11-16T15:34:18.410Z,62.87
2022-11-16T15:36:47.524Z,63.58
2022-11-16T15:39:19.616Z,63.43
2022-11-16T15:41:47.827Z,63.91
2022-11-16T15:44:20.157Z,64.53
2022-11-16T15:46:50.390Z,64.60
2022-11-16T15:49:34.678Z,64.89
2022-11-16T15:52:03.090Z,64.77
2022-11-16T15:54:54.442Z,64.94
2022-11-16T15:57:24.604Z,65.15
2022-11-16T15:59:55.997Z,65.28
2022-11-16T16:02:27.401Z,65.66
2022-11-16T16:04:55.321Z,65.79
2022-11-16T16:07:40.279Z,65.75
2022-11-16T16:10:25.154Z,66.07
2022-11-16T16:12:54.721Z,66.45
2022-11-16T16:15:26.233Z,66.92
2022-11-16T16:17:55.562Z,67.19
2022-11-16T16:20:25.966Z,67.15
2022-11-16T16:22:54.544Z,67.29
2022-11-16T16:25:28.663Z,67.49
2022-11-16T16:27:58.269Z,67.90
2022-11-16T16:30:30.424Z,68.00
2022-11-16T16:32:58.561Z,68.04
2022-11-16T16:35:28.470Z,68.39
2022-11-16T16:37:59.595Z,68.52
2022-11-16T16:40:29.399Z,68.54
2022-11-16T16:42:57.974Z,68.58
2022-11-16T16:45:37.260Z,68.44
2022-11-16T16:48:05.892Z,68.54
2022-11-16T16:50:33.864Z,68.56
2022-11-16T16:53:02.373Z,68.55
2022-11-16T16:55:36.722Z,68.48
2022-11-16T16:58:06.503Z,68.60
2022-11-16T17:00:37.222Z,68.40
2022-11-16T17:03:06.692Z,69.06
2022-11-16T17:05:36.495Z,69.16
2022-11-16T17:08:05.617Z,69.09
2022-11-16T17:10:34.494Z,69.37
2022-11-16T17:13:03.941Z,69.39
2022-11-16T17:15:32.153Z,69.81
2022-11-16T17:18:01.844Z,69.81
2022-11-16T17:20:29.824Z,70.13
2022-11-16T17:22:58.025Z,69.90
2022-11-16T17:25:26.280Z,70.32
2022-11-16T17:27:54.375Z,70.50
2022-11-16T17:30:22.536Z,70.69
2022-11-16T17:32:50.653Z,70.89
2022-11-16T17:35:20.123Z,70.95
2022-11-16T17:37:48.261Z,71.37
2022-11-16T17:40:17.127Z,71.69
2022-11-16T17:42:45.873Z,71.55
2022-11-16T17:45:14.224Z,71.73
2022-11-16T17:47:42.670Z,72.10
2022-11-16T17:50:11.597Z,72.04
2022-11-16T17:52:41.625Z,72.66
2022-11-16T17:55:10.123Z,72.75
2022-11-16T17:57:37.983Z,72.86
2022-11-16T18:00:07.490Z,72.77
2022-11-16T18:02:37.171Z,72.87
2022-11-16T18:05:08.029Z,72.84
2022-11-16T18:07:43.466Z,72.89
2022-11-16T18:10:18.891Z,73.26
2022-11-16T18:12:47.621Z,73.23
2022-11-16T18:15:28.342Z,73.55
2022-11-16T18:17:58.142Z,73.57
2022-11-16T18:20:30.612Z,73.46
2022-11-16T18:23:01.659Z,73.51
2022-11-16T18:25:33.305Z,73.94
2022-11-16T18:28:01.563Z,73.78
2022-11-16T18:33:40.483Z,73.60
2022-11-16T18:36:13.783Z,73.82
2022-11-16T18:45:05.324Z,73.64
2022-11-16T18:47:39.679Z,73.84
2022-11-16T18:50:18.947Z,74.20
2022-11-16T18:52:49.582Z,73.97
2022-11-16T18:55:18.937Z,74.10
2022-11-16T18:57:50.188Z,73.90
2022-11-16T19:00:21.346Z,73.85
2022-11-16T19:02:49.840Z,73.82
2022-11-16T19:05:18.136Z,73.88
2022-11-16T19:07:49.546Z,73.87
2022-11-16T19:10:18.397Z,73.98
2022-11-16T19:12:47.391Z,73.74
2022-11-16T19:15:16.051Z,74.40
2022-11-16T19:18:19.920Z,74.51
2022-11-16T19:20:47.507Z,74.40
2022-11-16T19:23:16.519Z,74.26
2022-11-16T19:25:45.502Z,74.02
2022-11-16T19:28:13.447Z,74.16
2022-11-16T19:30:41.720Z,74.06
2022-11-16T19:33:11.810Z,74.25
2022-11-16T19:35:40.367Z,74.52
2022-11-16T19:38:08.439Z,74.17
2022-11-16T19:40:38.042Z,74.20
2022-11-16T19:43:06.206Z,74.20
2022-11-16T19:45:34.129Z,74.28
2022-11-16T19:48:02.038Z,74.57
2022-11-16T19:50:31.263Z,74.42
2022-11-16T19:52:59.323Z,74.84
2022-11-16T19:55:27.445Z,74.90
2022-11-16T19:57:55.253Z,75.22
2022-11-16T20:00:23.334Z,75.30
2022-11-16T20:02:55.965Z,75.11
2022-11-16T20:05:24.158Z,75.58
2022-11-16T20:07:53.579Z,75.39
2022-11-16T20:10:21.416Z,75.49
2022-11-16T20:12:49.647Z,75.63
2022-11-16T20:15:17.610Z,75.78
2022-11-16T20:17:45.418Z,76.29
2022-11-16T20:20:13.241Z,76.14
2022-11-16T20:22:41.356Z,76.23
2022-11-16T20:25:11.232Z,76.59
2022-11-16T20:27:38.985Z,76.62
2022-11-16T20:30:09.880Z,76.61
2022-11-16T20:32:38.049Z,76.64
2022-11-16T20:35:06.329Z,76.28
2022-11-16T20:37:34.480Z,76.04
2022-11-16T20:40:02.466Z,76.41
2022-11-16T20:42:32.541Z,76.00
2022-11-16T20:45:04.663Z,76.50
2022-11-16T20:47:34.264Z,76.14
2022-11-16T20:50:05.457Z,76.23
2022-11-16T20:52:38.208Z,76.20
2022-11-16T20:55:11.870Z,75.98
2022-11-16T20:57:46.139Z,76.25
2022-11-16T21:00:20.919Z,76.06
2022-11-16T21:02:53.064Z,75.54
2022-11-16T21:05:24.647Z,75.26
2022-11-16T21:07:55.489Z,75.88
2022-11-16T21:10:24.153Z,75.85
2022-11-16T21:13:17.610Z,75.92
2022-11-16T21:16:00.488Z,75.21
2022-11-16T21:18:41.291Z,75.50
2022-11-16T21:21:13.113Z,75.03
2022-11-16T21:23:52.407Z,75.07
2022-11-16T21:26:31.758Z,75.11
2022-11-16T21:29:16.559Z,75.25
2022-11-16T21:31:49.737Z,74.65
2022-11-16T21:34:39.766Z,74.55
2022-11-16T21:37:15.635Z,74.82
2022-11-16T21:39:49.932Z,74.83
2022-11-16T21:42:20.386Z,74.71
2022-11-16T21:44:57.775Z,74.63
2022-11-16T21:47:26.174Z,74.25
2022-11-16T21:50:24.811Z,74.15
2022-11-16T21:52:42.866Z,74.26
2022-11-16T21:55:12.133Z,74.08
2022-11-16T21:57:40.169Z,74.06
2022-11-16T22:00:11.643Z,74.11
2022-11-16T22:02:39.967Z,73.98
2022-11-16T22:05:27.599Z,73.92
2022-11-16T22:07:55.869Z,73.59
2022-11-16T22:10:23.826Z,73.64
2022-11-16T22:12:51.737Z,73.63
2022-11-16T22:15:21.357Z,73.85
2022-11-16T22:17:49.352Z,73.45
2022-11-16T22:20:18.195Z,73.55
2022-11-16T22:22:46.167Z,73.52
2022-11-16T22:25:14.264Z,73.70
2022-11-16T22:28:13.451Z,73.67
2022-11-16T22:30:31.684Z,73.74
2022-11-16T22:32:59.659Z,73.35
2022-11-16T22:35:27.633Z,73.59
2022-11-16T22:37:55.945Z,73.85
2022-11-16T22:40:24.001Z,73.68
2022-11-16T22:42:53.382Z,73.71
2022-11-16T22:45:21.229Z,73.74
2022-11-16T22:47:54.743Z,73.87
2022-11-16T22:50:24.028Z,74.22
2022-11-16T22:52:51.819Z,74.13
2022-11-16T22:55:19.642Z,74.24
2022-11-16T22:57:47.566Z,74.34
2022-11-16T23:00:16.066Z,74.62
2022-11-16T23:02:44.094Z,74.78
2022-11-16T23:05:13.760Z,74.51
2022-11-16T23:07:43.843Z,74.75
2022-11-16T23:10:12.087Z,74.55
2022-11-16T23:12:57.606Z,74.64
2022-11-16T23:15:48.726Z,74.73
2022-11-16T23:18:17.200Z,74.64
2022-11-16T23:21:04.337Z,74.76
2022-11-16T23:23:50.078Z,74.92
2022-11-16T23:26:48.908Z,74.96
2022-11-16T23:29:16.816Z,74.81
2022-11-16T23:31:45.259Z,74.63
2022-11-16T23:34:13.127Z,74.69
2022-11-16T23:36:43.135Z,74.58
2022-11-16T23:39:11.244Z,74.58
2022-11-16T23:41:56.504Z,74.59
2022-11-16T23:44:24.477Z,74.07
2022-11-16T23:46:52.400Z,74.39
2022-11-16T23:49:20.370Z,74.36
2022-11-16T23:51:49.566Z,74.21
2022-11-16T23:54:17.452Z,74.40
2022-11-16T23:56:45.314Z,74.38
2022-11-16T23:59:13.236Z,74.66
